Bickan — SE9813 — position and weather

sailwx.info

Track history (hours):
 
Tides and Currents Weather Stations Pressure Air Temp Water Temp Dewpoint Dewpoint Depression Visibility Wind Speed Wind Dir Waves Ship Positions

Bickan

Last reported at 2017-Sep-23 19:55 UTC. Time now 2017-Nov-23 15:15 UTC.
Position N 67°55' E 014°56'.
Warning: this ship's position is months out of date.

Length 6 m.

Type: Pleasure craft. MMSI: 265764370.

Date/timePositionNaut miles runAvg speedWind from/ knotsBaromVisibWave heightAir tempDewpointWater temp
2017-Sep-23 19:55N 67°55' E 014°56'1 0.0
2017-Sep-21 16:36N 67°55' E 014°54'218.1
2017-Sep-21 16:30N 67°55' E 014°49'1 1.4
2017-Sep-21 15:59N 67°55' E 014°47'3 5.6
2017-Sep-21 15:29N 67°58' E 014°52'1 2.1
2017-Sep-21 14:58N 67°57' E 014°54'1 1.8
2017-Sep-21 14:28N 67°56' E 014°53'0 0.5
2017-Sep-21 14:00N 67°56' E 014°53'1 1.9
2017-Sep-21 13:30N 67°56' E 014°55'1 1.0
2017-Sep-21 12:40N 67°55' E 014°55'318.4
2017-Sep-21 12:29N 67°52' E 014°50'1 1.2
2017-Sep-21 11:58N 67°52' E 014°49'1 1.6
2017-Sep-21 11:29N 67°52' E 014°51'1 0.9
2017-Sep-21 10:51N 67°52' E 014°49'1 1.5
2017-Sep-21 10:30N 67°51' E 014°49'0 0.4
2017-Sep-21 10:00N 67°51' E 014°49'0 0.5
2017-Sep-21 09:30N 67°51' E 014°48'2 3.9
2017-Sep-21 09:00N 67°52' E 014°44'2 3.1
2017-Sep-21 08:26N 67°54' E 014°41'0 0.2
2017-Sep-21 07:58N 67°54' E 014°40'1 1.4
2017-Sep-21 07:28N 67°54' E 014°39'0 0.5
2017-Sep-21 06:59N 67°54' E 014°40'6 0.5
2017-Sep-20 18:41N 67°55' E 014°55'1 3.6
2017-Sep-20 18:30N 67°54' E 014°53'2 4.4
2017-Sep-20 17:58N 67°53' E 014°48'3 6.7
2017-Sep-20 17:30N 67°52' E 014°40'2 2.7
2017-Sep-20 16:56N 67°53' E 014°36'1 1.4
2017-Sep-20 16:30N 67°53' E 014°37'2 3.1
2017-Sep-20 16:00N 67°54' E 014°40'5 1.5
2017-Sep-20 12:29N 67°54' E 014°54'510.4
2017-Sep-20 11:58N 67°54' E 014°40'0 0.1
2017-Sep-20 11:30N 67°54' E 014°40'0 0.1
2017-Sep-20 11:00N 67°54' E 014°40'0 0.2
2017-Sep-20 10:29N 67°54' E 014°40'0 0.1
2017-Sep-20 09:56N 67°54' E 014°40'3 6.4
2017-Sep-20 09:30N 67°52' E 014°45'2 3.9
2017-Sep-20 08:56N 67°51' E 014°50'0 0.5
2017-Sep-20 08:29N 67°51' E 014°49'1 1.7
2017-Sep-20 08:00N 67°52' E 014°48'1 2.2
2017-Sep-20 07:29N 67°53' E 014°50'4 3.5
2017-Sep-20 06:29N 67°55' E 014°57'  
Track history (hours):
 
Tides and Currents Weather Stations Pressure Air Temp Water Temp Dewpoint Dewpoint Depression Visibility Wind Speed Wind Dir Waves Ship Positions

Bickan

Last reported at 2017-Sep-23 19:55 UTC. Time now 2017-Nov-23 15:15 UTC.
Position N 67°55' E 014°56'.
Warning: this ship's position is months out of date.

Length 6 m.

Type: Pleasure craft. MMSI: 265764370.

Date/timePositionNaut miles runAvg speedWind from/ knotsBaromVisibWave heightAir tempDewpointWater temp
2017-Sep-23 19:55N 67°55' E 014°56'1 0.0
2017-Sep-21 16:36N 67°55' E 014°54'218.1
2017-Sep-21 16:30N 67°55' E 014°49'1 1.4
2017-Sep-21 15:59N 67°55' E 014°47'3 5.6
2017-Sep-21 15:29N 67°58' E 014°52'1 2.1
2017-Sep-21 14:58N 67°57' E 014°54'1 1.8
2017-Sep-21 14:28N 67°56' E 014°53'0 0.5
2017-Sep-21 14:00N 67°56' E 014°53'1 1.9
2017-Sep-21 13:30N 67°56' E 014°55'1 1.0
2017-Sep-21 12:40N 67°55' E 014°55'318.4
2017-Sep-21 12:29N 67°52' E 014°50'1 1.2
2017-Sep-21 11:58N 67°52' E 014°49'1 1.6
2017-Sep-21 11:29N 67°52' E 014°51'1 0.9
2017-Sep-21 10:51N 67°52' E 014°49'1 1.5
2017-Sep-21 10:30N 67°51' E 014°49'0 0.4
2017-Sep-21 10:00N 67°51' E 014°49'0 0.5
2017-Sep-21 09:30N 67°51' E 014°48'2 3.9
2017-Sep-21 09:00N 67°52' E 014°44'2 3.1
2017-Sep-21 08:26N 67°54' E 014°41'0 0.2
2017-Sep-21 07:58N 67°54' E 014°40'1 1.4
2017-Sep-21 07:28N 67°54' E 014°39'0 0.5
2017-Sep-21 06:59N 67°54' E 014°40'6 0.5
2017-Sep-20 18:41N 67°55' E 014°55'1 3.6
2017-Sep-20 18:30N 67°54' E 014°53'2 4.4
2017-Sep-20 17:58N 67°53' E 014°48'3 6.7
2017-Sep-20 17:30N 67°52' E 014°40'2 2.7
2017-Sep-20 16:56N 67°53' E 014°36'1 1.4
2017-Sep-20 16:30N 67°53' E 014°37'2 3.1
2017-Sep-20 16:00N 67°54' E 014°40'5 1.5
2017-Sep-20 12:29N 67°54' E 014°54'510.4
2017-Sep-20 11:58N 67°54' E 014°40'0 0.1
2017-Sep-20 11:30N 67°54' E 014°40'0 0.1
2017-Sep-20 11:00N 67°54' E 014°40'0 0.2
2017-Sep-20 10:29N 67°54' E 014°40'0 0.1
2017-Sep-20 09:56N 67°54' E 014°40'3 6.4
2017-Sep-20 09:30N 67°52' E 014°45'2 3.9
2017-Sep-20 08:56N 67°51' E 014°50'0 0.5
2017-Sep-20 08:29N 67°51' E 014°49'1 1.7
2017-Sep-20 08:00N 67°52' E 014°48'1 2.2
2017-Sep-20 07:29N 67°53' E 014°50'4 3.5
2017-Sep-20 06:29N 67°55' E 014°57'  

Dump ship's entire track history